createdAt,value
2022-09-09T00:00:50.991Z,66.8
2022-09-09T00:04:16.210Z,67.1
2022-09-09T00:07:13.262Z,67.4
2022-09-09T00:10:07.730Z,67.8
2022-09-09T00:13:06.374Z,67.5
2022-09-09T00:16:02.820Z,67.3
2022-09-09T00:18:58.299Z,66.9
2022-09-09T00:21:52.135Z,66.8
2022-09-09T00:24:53.347Z,66.9
2022-09-09T00:27:47.251Z,67.3
2022-09-09T00:30:36.717Z,68
2022-09-09T00:33:24.432Z,67.3
2022-09-09T00:36:13.482Z,66.2
2022-09-09T00:39:05.471Z,66.2
2022-09-09T00:42:03.883Z,67.7
2022-09-09T00:45:01.452Z,67.7
2022-09-09T00:48:05.629Z,67.7
2022-09-09T00:50:56.461Z,66.7
2022-09-09T00:53:52.003Z,67.3
2022-09-09T00:56:58.611Z,67.1
2022-09-09T00:59:58.982Z,66.6
2022-09-09T01:03:03.451Z,66.6
2022-09-09T01:06:07.762Z,67.4
2022-09-09T01:09:03.125Z,66.4
2022-09-09T01:12:02.874Z,66.2
2022-09-09T01:15:00.763Z,66.2
2022-09-09T01:17:57.490Z,66.7
2022-09-09T01:20:49.659Z,66.8
2022-09-09T01:23:47.214Z,67.6
2022-09-09T01:26:51.755Z,66.9
2022-09-09T01:29:43.015Z,66.9
2022-09-09T01:32:30.698Z,67.1
2022-09-09T01:35:29.159Z,67.2
2022-09-09T01:38:26.169Z,67.4
2022-09-09T01:41:15.565Z,68.3
2022-09-09T01:44:03.650Z,67.4
2022-09-09T01:46:52.098Z,67.3
2022-09-09T01:49:39.686Z,67.3
2022-09-09T01:52:27.371Z,66.9
2022-09-09T01:55:15.979Z,68.3
2022-09-09T01:58:09.292Z,67
2022-09-09T02:01:10.518Z,67
2022-09-09T02:04:06.702Z,66.6
2022-09-09T02:07:01.621Z,66.6
2022-09-09T02:09:56.214Z,67.8
2022-09-09T02:12:51.832Z,66.2
2022-09-09T02:15:47.379Z,66.4
2022-09-09T02:18:41.972Z,67.1
2022-09-09T02:21:35.373Z,66.2
2022-09-09T02:24:23.122Z,66.5
2022-09-09T02:27:12.225Z,66.5
2022-09-09T02:30:03.506Z,66.6
2022-09-09T02:32:53.171Z,66.6
2022-09-09T02:35:44.705Z,67.5
2022-09-09T02:38:34.027Z,66.9
2022-09-09T02:41:26.692Z,67.2
2022-09-09T02:44:19.512Z,67.5
2022-09-09T02:47:07.871Z,67.8
2022-09-09T02:50:10.254Z,67.4
2022-09-09T02:53:01.710Z,67.9
2022-09-09T02:55:57.465Z,67.8
2022-09-09T02:58:51.806Z,67.6
2022-09-09T03:01:40.246Z,67.8
2022-09-09T03:04:27.803Z,67.6
2022-09-09T03:07:16.818Z,67.9
2022-09-09T03:10:05.069Z,68.1
2022-09-09T03:12:54.009Z,68.3
2022-09-09T03:15:41.608Z,68.6
2022-09-09T03:18:29.367Z,68.6
2022-09-09T03:21:17.969Z,68.4
2022-09-09T03:24:05.552Z,68.5
2022-09-09T03:26:53.694Z,68.5
2022-09-09T03:29:41.569Z,68.2
2022-09-09T03:32:30.597Z,68.2
2022-09-09T03:35:18.508Z,69
2022-09-09T03:38:06.133Z,68.5
2022-09-09T03:40:54.012Z,67.9
2022-09-09T03:43:43.276Z,68.5
2022-09-09T03:46:30.976Z,67.9
2022-09-09T03:49:19.524Z,67.5
2022-09-09T03:52:08.480Z,67.3
2022-09-09T03:54:56.328Z,67.4
2022-09-09T03:57:43.906Z,67.5
2022-09-09T04:00:32.816Z,67.4
2022-09-09T04:03:22.710Z,67.3
2022-09-09T04:06:14.240Z,67.9
2022-09-09T04:09:06.822Z,67.3
2022-09-09T04:11:54.477Z,67.1
2022-09-09T04:14:42.041Z,67.1
2022-09-09T04:17:29.621Z,67.3
2022-09-09T04:20:17.233Z,67.2
2022-09-09T04:23:05.294Z,67.2
2022-09-09T04:25:53.021Z,67.5
2022-09-09T04:28:42.468Z,67.3
2022-09-09T04:31:30.338Z,66.8
2022-09-09T04:34:18.475Z,67.1
2022-09-09T04:37:06.805Z,67.2
2022-09-09T04:39:54.430Z,67.1
2022-09-09T04:42:42.034Z,67.2
2022-09-09T04:45:29.757Z,66.8
2022-09-09T04:48:18.128Z,67
2022-09-09T04:51:06.876Z,67.8
2022-09-09T04:53:58.743Z,66.6
2022-09-09T04:56:46.670Z,66.3
2022-09-09T04:59:36.479Z,66.3
2022-09-09T05:02:28.516Z,65.5
2022-09-09T05:05:19.383Z,66.4
2022-09-09T05:08:06.962Z,66.4
2022-09-09T05:10:55.549Z,66.8
2022-09-09T05:13:45.008Z,67.2
2022-09-09T05:16:33.679Z,67
2022-09-09T05:19:21.216Z,67.1
2022-09-09T05:22:08.912Z,66.9
2022-09-09T05:24:57.470Z,66.5
2022-09-09T05:27:45.501Z,67.7
2022-09-09T05:30:34.028Z,67.7
2022-09-09T05:33:21.740Z,67
2022-09-09T05:36:11.290Z,66.5
2022-09-09T05:39:01.220Z,66.1
2022-09-09T05:41:49.003Z,66.2
2022-09-09T05:44:36.907Z,66.1
2022-09-09T05:47:24.438Z,65.8
2022-09-09T05:50:13.607Z,65.5
2022-09-09T05:53:01.884Z,65.7
2022-09-09T05:55:49.543Z,65.5
2022-09-09T05:58:43.627Z,65.6
2022-09-09T06:01:32.946Z,65.2
2022-09-09T06:04:25.987Z,64.8
2022-09-09T06:07:13.609Z,64.5
2022-09-09T06:10:01.118Z,64.5
2022-09-09T06:12:50.515Z,64.3
2022-09-09T06:15:39.304Z,64.5
2022-09-09T06:18:36.923Z,65.5
2022-09-09T06:21:24.803Z,63.1
2022-09-09T06:24:14.174Z,63.5
2022-09-09T06:27:03.127Z,63
2022-09-09T06:29:51.532Z,64.1
2022-09-09T06:32:39.164Z,62.9
2022-09-09T06:35:26.785Z,63.5
2022-09-09T06:38:14.462Z,63.7
2022-09-09T06:41:02.237Z,63.6
2022-09-09T06:43:51.336Z,64
2022-09-09T06:46:41.185Z,64
2022-09-09T06:49:28.944Z,65.1
2022-09-09T06:52:17.049Z,64
2022-09-09T06:55:04.971Z,64.4
2022-09-09T06:57:53.948Z,63.7
2022-09-09T07:00:41.581Z,64
2022-09-09T07:03:29.269Z,64.3
2022-09-09T07:06:17.078Z,63.2
2022-09-09T07:09:09.651Z,61.3
2022-09-09T07:11:59.556Z,60.1
2022-09-09T07:14:47.648Z,59.3
2022-09-09T07:17:35.235Z,61.2
2022-09-09T07:20:22.911Z,63.8
2022-09-09T07:23:10.584Z,63.7
2022-09-09T07:25:58.151Z,63.4
2022-09-09T07:28:45.828Z,63.3
2022-09-09T07:31:34.983Z,62.7
2022-09-09T07:34:25.447Z,61.9
2022-09-09T07:37:13.058Z,61.1
2022-09-09T07:40:00.739Z,61.8
2022-09-09T07:42:50.555Z,61.2
2022-09-09T07:45:39.250Z,60.8
2022-09-09T07:48:27.655Z,60.7
2022-09-09T07:51:15.493Z,60.2
2022-09-09T07:54:06.804Z,59.6
2022-09-09T07:56:56.868Z,61.9
2022-09-09T07:59:44.410Z,65.3
2022-09-09T08:02:32.414Z,63.9
2022-09-09T08:05:19.999Z,62.4
2022-09-09T08:08:08.661Z,62
2022-09-09T08:10:56.775Z,63
2022-09-09T08:13:54.351Z,60.6
2022-09-09T08:16:43.035Z,59.6
2022-09-09T08:19:32.823Z,62.1
2022-09-09T08:22:21.499Z,63.7
2022-09-09T08:25:10.203Z,63.9
2022-09-09T08:27:58.201Z,63.5
2022-09-09T08:30:45.750Z,60.6
2022-09-09T08:33:34.632Z,63.1
2022-09-09T08:36:23.889Z,59.5
2022-09-09T08:39:13.151Z,60.5
2022-09-09T08:42:04.601Z,62.6
2022-09-09T08:45:03.567Z,60.8
2022-09-09T08:48:05.772Z,61.1
2022-09-09T08:51:08.467Z,61.5
2022-09-09T08:53:59.763Z,63.4
2022-09-09T08:56:50.335Z,60.4
2022-09-09T08:59:37.977Z,61
2022-09-09T09:02:26.781Z,61.5
2022-09-09T09:05:24.425Z,61.9
2022-09-09T09:08:19.003Z,62.5
2022-09-09T09:11:15.477Z,64.7
2022-09-09T09:14:03.671Z,59.6
2022-09-09T09:17:00.374Z,60.4
2022-09-09T09:19:51.115Z,61.4
2022-09-09T09:22:38.984Z,60.6
2022-09-09T09:25:34.418Z,63
2022-09-09T09:28:25.956Z,62.7
2022-09-09T09:31:18.397Z,61.1
2022-09-09T09:34:06.646Z,60.6
2022-09-09T09:36:57.759Z,60.6
2022-09-09T09:40:03.384Z,60.6
2022-09-09T09:42:56.425Z,62.7
2022-09-09T09:46:06.990Z,63.3
2022-09-09T09:49:09.026Z,58.2
2022-09-09T09:51:56.871Z,57.6
2022-09-09T09:54:47.943Z,56.3
2022-09-09T09:57:37.985Z,56
2022-09-09T10:00:25.973Z,53.9
2022-09-09T10:03:13.493Z,55.3
2022-09-09T10:06:10.539Z,56.7
2022-09-09T10:08:58.039Z,56.6
2022-09-09T10:11:48.012Z,55.6
2022-09-09T10:14:49.509Z,54.9
2022-09-09T10:17:45.794Z,55.6
2022-09-09T10:20:44.398Z,55.2
2022-09-09T10:23:41.617Z,55.9
2022-09-09T10:26:43.116Z,53.2
2022-09-09T10:29:39.975Z,55
2022-09-09T10:32:43.754Z,55.6
2022-09-09T10:35:37.808Z,55.4
2022-09-09T10:38:37.725Z,55.4
2022-09-09T10:41:29.201Z,51.7
2022-09-09T10:44:34.183Z,52.8
2022-09-09T10:47:36.436Z,54.2
2022-09-09T10:51:00.553Z,52.7
2022-09-09T10:54:07.692Z,53.2
2022-09-09T10:57:11.720Z,53.4
2022-09-09T11:00:09.531Z,54
2022-09-09T11:03:05.283Z,53.2
2022-09-09T11:06:02.883Z,54.1
2022-09-09T11:08:57.108Z,51.9
2022-09-09T11:11:48.541Z,53
2022-09-09T11:14:39.952Z,53.7
2022-09-09T11:17:31.568Z,53.4
2022-09-09T11:20:28.657Z,54.1
2022-09-09T11:23:17.785Z,52.5
2022-09-09T11:26:13.678Z,52.6
2022-09-09T11:29:09.456Z,51
2022-09-09T11:32:14.237Z,50.7
2022-09-09T11:35:19.969Z,51.9
2022-09-09T11:38:20.097Z,51.1
2022-09-09T11:41:14.067Z,49.5
2022-09-09T11:44:06.509Z,48.2
2022-09-09T11:46:58.532Z,47.3
2022-09-09T11:49:46.356Z,47.3
2022-09-09T11:52:34.742Z,45.4
2022-09-09T11:55:27.436Z,46
2022-09-09T11:58:18.863Z,46.6
2022-09-09T12:01:08.945Z,48.8
2022-09-09T12:04:02.257Z,47.1
2022-09-09T12:07:14.621Z,48.1
2022-09-09T12:10:18.477Z,45.5
2022-09-09T12:13:12.644Z,43.7
2022-09-09T12:16:05.016Z,46
2022-09-09T12:19:16.652Z,45.1
2022-09-09T12:22:07.691Z,45.1
2022-09-09T12:25:08.901Z,43.7
2022-09-09T12:28:09.644Z,43.9
2022-09-09T12:31:03.964Z,42.2
2022-09-09T12:33:56.797Z,44.1
2022-09-09T12:36:56.150Z,44
2022-09-09T12:39:48.875Z,44.4
2022-09-09T12:42:41.501Z,44.4
2022-09-09T12:45:29.111Z,41.6
2022-09-09T12:48:18.612Z,41.3
2022-09-09T12:51:06.973Z,39.5
2022-09-09T12:54:05.630Z,40.8
2022-09-09T12:57:01.014Z,41.4
2022-09-09T12:59:49.393Z,41.3
2022-09-09T13:02:39.060Z,42.2
2022-09-09T13:05:36.765Z,41.9
2022-09-09T13:08:25.314Z,40.7
2022-09-09T13:11:13.115Z,40.6
2022-09-09T13:14:06.573Z,37.2
2022-09-09T13:17:04.054Z,38.3
2022-09-09T13:20:01.838Z,38.9
2022-09-09T13:22:51.952Z,39.2
2022-09-09T13:25:43.807Z,39.8
2022-09-09T13:28:40.267Z,38.5
2022-09-09T13:31:28.077Z,39.3
2022-09-09T13:34:19.166Z,39.1
2022-09-09T13:37:15.112Z,39.5
2022-09-09T13:40:10.099Z,40.9
2022-09-09T13:43:05.500Z,40.2
2022-09-09T13:46:04.976Z,40.5
2022-09-09T13:49:11.819Z,39.5
2022-09-09T13:52:08.686Z,40.3
2022-09-09T13:54:59.312Z,37.5
2022-09-09T13:57:47.182Z,38.1
2022-09-09T14:00:39.170Z,41.1
2022-09-09T14:03:27.265Z,40.1
2022-09-09T14:06:14.920Z,41.4
2022-09-09T14:09:04.549Z,41
2022-09-09T14:11:53.545Z,41.8
2022-09-09T14:14:41.482Z,43.4
2022-09-09T14:17:29.567Z,43.9
2022-09-09T14:20:17.363Z,44.6
2022-09-09T14:23:05.276Z,44.6
2022-09-09T14:25:57.599Z,45.2
2022-09-09T14:28:54.706Z,45.6
2022-09-09T14:31:43.737Z,45.2
2022-09-09T14:34:31.660Z,44.5
2022-09-09T14:37:19.305Z,42.7
2022-09-09T14:40:07.010Z,40.4
2022-09-09T14:42:56.930Z,41.9
2022-09-09T14:45:45.120Z,41.2
2022-09-09T14:48:33.866Z,40.5
2022-09-09T14:51:22.294Z,40.3
2022-09-09T14:54:12.884Z,40.9
2022-09-09T14:57:00.996Z,40.7
2022-09-09T14:59:49.142Z,42.6
2022-09-09T15:02:39.428Z,42.1
2022-09-09T15:05:27.522Z,44.1
2022-09-09T15:08:16.478Z,43.7
2022-09-09T15:11:04.006Z,43.8
2022-09-09T15:13:53.289Z,44.1
2022-09-09T15:16:41.235Z,44.7
2022-09-09T15:19:29.031Z,44.9
2022-09-09T15:22:18.115Z,44.7
2022-09-09T15:25:05.802Z,44.9
2022-09-09T15:27:54.367Z,45.3
2022-09-09T15:30:42.129Z,46.3
2022-09-09T15:33:30.766Z,47.1
2022-09-09T15:36:18.814Z,48.3
2022-09-09T15:39:09.934Z,47.6
2022-09-09T15:42:01.441Z,48.6
2022-09-09T15:44:49.380Z,48.4
2022-09-09T15:47:37.098Z,48.8
2022-09-09T15:50:25.223Z,48.7
2022-09-09T15:53:14.222Z,48.4
2022-09-09T15:56:01.967Z,48.4
2022-09-09T15:58:49.798Z,49.2
2022-09-09T16:01:37.955Z,49.5
2022-09-09T16:04:26.072Z,50.5
2022-09-09T16:07:15.297Z,48.7
2022-09-09T16:10:03.489Z,49.1
2022-09-09T16:12:53.123Z,49.2
2022-09-09T16:15:41.402Z,46.5
2022-09-09T16:18:29.575Z,47.3
2022-09-09T16:21:22.222Z,47.3
2022-09-09T16:24:14.765Z,48.2
2022-09-09T16:27:04.425Z,47.5
2022-09-09T16:29:52.336Z,46.6
2022-09-09T16:32:40.037Z,46.6
2022-09-09T16:35:27.611Z,46.9
2022-09-09T16:38:15.774Z,47.3
2022-09-09T16:41:03.378Z,47.8
2022-09-09T16:43:52.528Z,49.3
2022-09-09T16:46:42.863Z,48.6
2022-09-09T16:49:34.274Z,48.6
2022-09-09T16:52:22.175Z,49.2
2022-09-09T16:55:09.910Z,49.2
2022-09-09T16:57:58.007Z,49.8
2022-09-09T17:00:45.629Z,51.7
2022-09-09T17:03:34.704Z,52
2022-09-09T17:06:23.105Z,53
2022-09-09T17:09:11.528Z,52
2022-09-09T17:11:59.425Z,53
2022-09-09T17:14:47.759Z,53.9
2022-09-09T17:17:36.785Z,55
2022-09-09T17:20:24.778Z,55.4
2022-09-09T17:23:12.346Z,55.7
2022-09-09T17:26:01.119Z,56.8
2022-09-09T17:28:48.894Z,57.2
2022-09-09T17:31:38.218Z,55.2
2022-09-09T17:34:26.544Z,55.5
2022-09-09T17:37:14.237Z,56.6
2022-09-09T17:40:02.300Z,57.5
2022-09-09T17:42:51.986Z,57.6
2022-09-09T17:45:39.915Z,58.5
2022-09-09T17:48:27.414Z,60.3
2022-09-09T17:51:17.211Z,59.5
2022-09-09T17:54:10.683Z,59.9
2022-09-09T17:57:01.966Z,59.9
2022-09-09T17:59:50.171Z,60.9
2022-09-09T18:02:37.861Z,61.9
2022-09-09T18:05:25.496Z,59.6
2022-09-09T18:08:13.054Z,57.6
2022-09-09T18:11:00.851Z,57.1
2022-09-09T18:13:49.546Z,59.4
2022-09-09T18:16:39.581Z,58.7
2022-09-09T18:19:27.258Z,59.6
2022-09-09T18:22:17.757Z,60.6
2022-09-09T18:25:06.028Z,60.8
2022-09-09T18:27:53.933Z,61.7
2022-09-09T18:30:43.184Z,60.7
2022-09-09T18:33:30.763Z,59.1
2022-09-09T18:36:21.261Z,59.4
2022-09-09T18:39:11.603Z,60.4
2022-09-09T18:42:02.108Z,60
2022-09-09T18:44:50.908Z,61.3
2022-09-09T18:47:38.464Z,62
2022-09-09T18:50:27.185Z,62.3
2022-09-09T18:53:14.959Z,60.7
2022-09-09T18:56:02.991Z,59.8
2022-09-09T18:58:53.298Z,59.4
2022-09-09T19:01:43.077Z,61
2022-09-09T19:04:31.527Z,60.6
2022-09-09T19:07:19.265Z,60.8
2022-09-09T19:10:07.355Z,61.4
2022-09-09T19:12:55.752Z,62
2022-09-09T19:15:44.272Z,61.9
2022-09-09T19:18:31.993Z,60.6
2022-09-09T19:21:21.734Z,59.5
2022-09-09T19:24:12.645Z,60.1
2022-09-09T19:27:02.615Z,58.4
2022-09-09T19:29:56.346Z,58.5
2022-09-09T19:32:54.071Z,59.7
2022-09-09T19:35:43.699Z,60.6
2022-09-09T19:38:31.509Z,62.5
2022-09-09T19:41:20.131Z,62.6
2022-09-09T19:44:09.706Z,62
2022-09-09T19:46:59.030Z,61
2022-09-09T19:49:48.044Z,60
2022-09-09T19:52:36.291Z,59.1
2022-09-09T19:55:28.567Z,60.6
2022-09-09T19:58:16.876Z,60.1
2022-09-09T20:01:05.063Z,62.4
2022-09-09T20:03:54.755Z,64.2
2022-09-09T20:06:45.781Z,62.5
2022-09-09T20:09:36.131Z,62
2022-09-09T20:12:23.704Z,61.5
2022-09-09T20:15:11.588Z,60.6
2022-09-09T20:17:59.869Z,59.6
2022-09-09T20:20:49.303Z,59.3
2022-09-09T20:23:37.015Z,59.6
2022-09-09T20:26:25.280Z,61.7
2022-09-09T20:29:16.318Z,62.6
2022-09-09T20:32:05.271Z,63.3
2022-09-09T20:34:53.029Z,61.5
2022-09-09T20:37:40.568Z,61
2022-09-09T20:40:32.796Z,60.2
2022-09-09T20:43:21.999Z,60.3
2022-09-09T20:46:09.736Z,62.2
2022-09-09T20:49:00.997Z,63
2022-09-09T20:51:54.567Z,62.6
2022-09-09T20:54:42.334Z,61.4
2022-09-09T20:57:31.719Z,58.4
2022-09-09T21:00:20.799Z,58.1
2022-09-09T21:03:08.670Z,59.8
2022-09-09T21:05:56.272Z,61.7
2022-09-09T21:08:44.769Z,62.6
2022-09-09T21:11:33.472Z,60
2022-09-09T21:14:21.151Z,58.1
2022-09-09T21:17:09.140Z,59.3
2022-09-09T21:19:57.486Z,61.8
2022-09-09T21:22:45.267Z,63.7
2022-09-09T21:25:33.705Z,60.4
2022-09-09T21:28:21.424Z,57.8
2022-09-09T21:31:10.410Z,59.2
2022-09-09T21:34:00.344Z,61.4
2022-09-09T21:36:48.383Z,61.6
2022-09-09T21:39:36.255Z,62.7
2022-09-09T21:42:24.016Z,59.9
2022-09-09T21:45:11.671Z,58.2
2022-09-09T21:47:59.786Z,59.4
2022-09-09T21:50:48.122Z,61.7
2022-09-09T21:53:35.714Z,63
2022-09-09T21:56:24.372Z,63.1
2022-09-09T21:59:12.360Z,60.4
2022-09-09T22:02:00.034Z,59.1
2022-09-09T22:04:48.026Z,59.9
2022-09-09T22:07:36.367Z,61.2
2022-09-09T22:10:24.927Z,63.3
2022-09-09T22:13:12.534Z,61.5
2022-09-09T22:16:02.541Z,60.2
2022-09-09T22:18:52.284Z,59.3
2022-09-09T22:21:41.848Z,59.3
2022-09-09T22:24:29.738Z,61.1
2022-09-09T22:27:17.515Z,62.5
2022-09-09T22:30:05.439Z,62
2022-09-09T22:32:55.251Z,60.7
2022-09-09T22:35:43.399Z,59.1
2022-09-09T22:38:31.299Z,60.3
2022-09-09T22:41:20.021Z,61.4
2022-09-09T22:44:07.800Z,63.1
2022-09-09T22:46:55.407Z,65.7
2022-09-09T22:49:43.458Z,64.5
2022-09-09T22:52:31.726Z,63.4
2022-09-09T22:55:19.367Z,63.8
2022-09-09T22:58:07.120Z,61.3
2022-09-09T23:00:55.301Z,60.9
2022-09-09T23:03:44.346Z,61.2
2022-09-09T23:06:32.858Z,59.9
2022-09-09T23:09:20.482Z,59
2022-09-09T23:12:08.124Z,60.8
2022-09-09T23:14:55.971Z,62.3
2022-09-09T23:17:43.966Z,63.6
2022-09-09T23:20:31.652Z,62.5
2022-09-09T23:23:19.515Z,60.5
2022-09-09T23:26:07.582Z,59.8
2022-09-09T23:28:57.780Z,59.8
2022-09-09T23:31:47.523Z,62.3
2022-09-09T23:34:35.528Z,63.2
2022-09-09T23:37:24.723Z,62.2
2022-09-09T23:40:12.347Z,61.7
2022-09-09T23:42:59.996Z,60
2022-09-09T23:45:48.665Z,59.5
2022-09-09T23:48:36.560Z,58.9
2022-09-09T23:51:25.361Z,60.8
2022-09-09T23:54:15.259Z,62
2022-09-09T23:57:03.661Z,64.1
2022-09-09T23:59:51.813Z,63.9
